sensor_id;sensor_type;location;lat;lon;timestamp;P1;durP1;ratioP1;P2;durP2;ratioP2
11113;SDS011;5610;52.154;9.198;2023-03-01T00:01:40;10.18;;;9.15;;
11113;SDS011;5610;52.154;9.198;2023-03-01T00:04:25;11.70;;;9.80;;
11113;SDS011;5610;52.154;9.198;2023-03-01T00:07:11;11.02;;;9.88;;
11113;SDS011;5610;52.154;9.198;2023-03-01T00:09:57;11.00;;;9.95;;
11113;SDS011;5610;52.154;9.198;2023-03-01T00:12:42;9.45;;;8.45;;
11113;SDS011;5610;52.154;9.198;2023-03-01T00:15:29;9.60;;;8.20;;
11113;SDS011;5610;52.154;9.198;2023-03-01T00:18:14;8.30;;;7.50;;
11113;SDS011;5610;52.154;9.198;2023-03-01T00:20:59;7.72;;;7.03;;
11113;SDS011;5610;52.154;9.198;2023-03-01T00:23:45;7.38;;;6.68;;
11113;SDS011;5610;52.154;9.198;2023-03-01T00:26:32;8.10;;;7.40;;
11113;SDS011;5610;52.154;9.198;2023-03-01T00:29:17;9.23;;;7.20;;
11113;SDS011;5610;52.154;9.198;2023-03-01T00:32:04;8.27;;;7.50;;
11113;SDS011;5610;52.154;9.198;2023-03-01T00:34:49;7.97;;;7.15;;
11113;SDS011;5610;52.154;9.198;2023-03-01T00:37:40;8.75;;;7.25;;
11113;SDS011;5610;52.154;9.198;2023-03-01T00:40:26;9.18;;;8.18;;
11113;SDS011;5610;52.154;9.198;2023-03-01T00:43:12;8.85;;;8.05;;
11113;SDS011;5610;52.154;9.198;2023-03-01T00:46:00;7.93;;;7.13;;
11113;SDS011;5610;52.154;9.198;2023-03-01T00:48:47;8.40;;;7.57;;
11113;SDS011;5610;52.154;9.198;2023-03-01T00:51:33;8.70;;;7.80;;
11113;SDS011;5610;52.154;9.198;2023-03-01T00:54:18;8.82;;;8.02;;
11113;SDS011;5610;52.154;9.198;2023-03-01T00:57:05;9.48;;;7.97;;
11113;SDS011;5610;52.154;9.198;2023-03-01T00:59:50;7.82;;;7.03;;
11113;SDS011;5610;52.154;9.198;2023-03-01T01:02:36;8.25;;;7.45;;
11113;SDS011;5610;52.154;9.198;2023-03-01T01:05:22;8.55;;;7.55;;
11113;SDS011;5610;52.154;9.198;2023-03-01T01:08:08;8.57;;;7.72;;
11113;SDS011;5610;52.154;9.198;2023-03-01T01:10:53;8.05;;;7.13;;
11113;SDS011;5610;52.154;9.198;2023-03-01T01:13:38;8.82;;;7.90;;
11113;SDS011;5610;52.154;9.198;2023-03-01T01:16:26;10.20;;;8.30;;
11113;SDS011;5610;52.154;9.198;2023-03-01T01:19:12;10.40;;;7.57;;
11113;SDS011;5610;52.154;9.198;2023-03-01T01:21:59;7.20;;;6.50;;
11113;SDS011;5610;52.154;9.198;2023-03-01T01:24:45;8.18;;;7.30;;
11113;SDS011;5610;52.154;9.198;2023-03-01T01:27:30;8.93;;;8.13;;
11113;SDS011;5610;52.154;9.198;2023-03-01T01:30:16;8.80;;;8.00;;
11113;SDS011;5610;52.154;9.198;2023-03-01T01:33:01;9.90;;;8.07;;
11113;SDS011;5610;52.154;9.198;2023-03-01T01:35:46;9.45;;;8.55;;
11113;SDS011;5610;52.154;9.198;2023-03-01T01:38:33;9.82;;;7.07;;
11113;SDS011;5610;52.154;9.198;2023-03-01T01:41:19;9.57;;;8.68;;
11113;SDS011;5610;52.154;9.198;2023-03-01T01:44:13;9.18;;;8.13;;
11113;SDS011;5610;52.154;9.198;2023-03-01T01:47:00;8.77;;;7.88;;
11113;SDS011;5610;52.154;9.198;2023-03-01T01:49:49;8.57;;;7.78;;
11113;SDS011;5610;52.154;9.198;2023-03-01T01:52:38;9.40;;;8.20;;
11113;SDS011;5610;52.154;9.198;2023-03-01T01:55:25;8.52;;;7.72;;
11113;SDS011;5610;52.154;9.198;2023-03-01T01:58:13;9.88;;;8.88;;
11113;SDS011;5610;52.154;9.198;2023-03-01T02:01:00;8.88;;;7.97;;
11113;SDS011;5610;52.154;9.198;2023-03-01T02:03:46;8.65;;;7.75;;
11113;SDS011;5610;52.154;9.198;2023-03-01T02:06:33;8.25;;;7.45;;
11113;SDS011;5610;52.154;9.198;2023-03-01T02:09:22;9.38;;;8.40;;
11113;SDS011;5610;52.154;9.198;2023-03-01T02:12:10;8.75;;;7.85;;
11113;SDS011;5610;52.154;9.198;2023-03-01T02:14:55;10.55;;;8.90;;
11113;SDS011;5610;52.154;9.198;2023-03-01T02:17:41;9.60;;;8.70;;
11113;SDS011;5610;52.154;9.198;2023-03-01T02:20:27;10.52;;;9.43;;
11113;SDS011;5610;52.154;9.198;2023-03-01T02:23:17;9.50;;;8.55;;
11113;SDS011;5610;52.154;9.198;2023-03-01T02:26:05;9.68;;;8.68;;
11113;SDS011;5610;52.154;9.198;2023-03-01T02:28:56;11.05;;;9.18;;
11113;SDS011;5610;52.154;9.198;2023-03-01T02:31:41;9.60;;;8.70;;
11113;SDS011;5610;52.154;9.198;2023-03-01T02:34:29;10.52;;;9.43;;
11113;SDS011;5610;52.154;9.198;2023-03-01T02:37:16;11.63;;;10.13;;
11113;SDS011;5610;52.154;9.198;2023-03-01T02:40:08;10.48;;;8.98;;
11113;SDS011;5610;52.154;9.198;2023-03-01T02:42:57;9.77;;;8.70;;
11113;SDS011;5610;52.154;9.198;2023-03-01T02:45:49;10.30;;;9.20;;
11113;SDS011;5610;52.154;9.198;2023-03-01T02:48:39;11.02;;;8.80;;
11113;SDS011;5610;52.154;9.198;2023-03-01T02:51:42;9.10;;;8.20;;
11113;SDS011;5610;52.154;9.198;2023-03-01T02:54:36;8.48;;;7.68;;
11113;SDS011;5610;52.154;9.198;2023-03-01T02:57:28;8.30;;;7.50;;
11113;SDS011;5610;52.154;9.198;2023-03-01T03:00:15;10.30;;;9.40;;
11113;SDS011;5610;52.154;9.198;2023-03-01T03:03:05;10.20;;;9.13;;
11113;SDS011;5610;52.154;9.198;2023-03-01T03:05:51;10.57;;;9.50;;
11113;SDS011;5610;52.154;9.198;2023-03-01T03:08:37;10.43;;;9.20;;
11113;SDS011;5610;52.154;9.198;2023-03-01T03:11:22;10.35;;;8.95;;
11113;SDS011;5610;52.154;9.198;2023-03-01T03:14:08;9.60;;;8.73;;
11113;SDS011;5610;52.154;9.198;2023-03-01T03:16:55;10.10;;;9.10;;
11113;SDS011;5610;52.154;9.198;2023-03-01T03:19:42;10.07;;;9.07;;
11113;SDS011;5610;52.154;9.198;2023-03-01T03:22:29;9.68;;;8.75;;
11113;SDS011;5610;52.154;9.198;2023-03-01T03:25:14;9.32;;;8.32;;
11113;SDS011;5610;52.154;9.198;2023-03-01T03:28:00;8.85;;;7.95;;
11113;SDS011;5610;52.154;9.198;2023-03-01T03:30:45;10.50;;;7.97;;
11113;SDS011;5610;52.154;9.198;2023-03-01T03:33:32;10.43;;;8.77;;
11113;SDS011;5610;52.154;9.198;2023-03-01T03:36:19;10.25;;;9.20;;
11113;SDS011;5610;52.154;9.198;2023-03-01T03:39:06;9.65;;;8.30;;
11113;SDS011;5610;52.154;9.198;2023-03-01T03:41:52;10.57;;;8.90;;
11113;SDS011;5610;52.154;9.198;2023-03-01T03:44:37;10.60;;;9.50;;
11113;SDS011;5610;52.154;9.198;2023-03-01T03:47:22;11.65;;;9.10;;
11113;SDS011;5610;52.154;9.198;2023-03-01T03:50:08;10.20;;;9.30;;
11113;SDS011;5610;52.154;9.198;2023-03-01T03:52:56;8.48;;;7.65;;
11113;SDS011;5610;52.154;9.198;2023-03-01T03:55:41;10.18;;;9.18;;
11113;SDS011;5610;52.154;9.198;2023-03-01T03:58:28;10.45;;;9.30;;
11113;SDS011;5610;52.154;9.198;2023-03-01T04:01:13;9.10;;;8.30;;
11113;SDS011;5610;52.154;9.198;2023-03-01T04:03:58;9.02;;;8.07;;
11113;SDS011;5610;52.154;9.198;2023-03-01T04:06:47;11.40;;;9.02;;
11113;SDS011;5610;52.154;9.198;2023-03-01T04:09:34;10.75;;;9.50;;
11113;SDS011;5610;52.154;9.198;2023-03-01T04:12:19;10.52;;;9.43;;
11113;SDS011;5610;52.154;9.198;2023-03-01T04:15:07;11.73;;;9.15;;
11113;SDS011;5610;52.154;9.198;2023-03-01T04:17:57;9.88;;;8.88;;
11113;SDS011;5610;52.154;9.198;2023-03-01T04:20:42;9.90;;;8.48;;
11113;SDS011;5610;52.154;9.198;2023-03-01T04:23:28;9.38;;;8.52;;
11113;SDS011;5610;52.154;9.198;2023-03-01T04:26:15;10.07;;;9.02;;
11113;SDS011;5610;52.154;9.198;2023-03-01T04:29:00;10.13;;;9.13;;
11113;SDS011;5610;52.154;9.198;2023-03-01T04:31:47;11.02;;;10.00;;
11113;SDS011;5610;52.154;9.198;2023-03-01T04:34:33;9.35;;;8.30;;
11113;SDS011;5610;52.154;9.198;2023-03-01T04:37:18;9.95;;;8.95;;
11113;SDS011;5610;52.154;9.198;2023-03-01T04:40:04;16.08;;;11.35;;
11113;SDS011;5610;52.154;9.198;2023-03-01T04:43:01;13.57;;;11.95;;
11113;SDS011;5610;52.154;9.198;2023-03-01T04:45:46;11.95;;;9.75;;
11113;SDS011;5610;52.154;9.198;2023-03-01T04:48:32;11.07;;;10.00;;
11113;SDS011;5610;52.154;9.198;2023-03-01T04:51:17;11.50;;;9.50;;
11113;SDS011;5610;52.154;9.198;2023-03-01T04:54:03;10.25;;;9.27;;
11113;SDS011;5610;52.154;9.198;2023-03-01T04:56:53;10.85;;;9.10;;
11113;SDS011;5610;52.154;9.198;2023-03-01T04:59:39;9.35;;;8.40;;
11113;SDS011;5610;52.154;9.198;2023-03-01T05:02:25;12.80;;;10.35;;
11113;SDS011;5610;52.154;9.198;2023-03-01T05:05:10;10.07;;;9.05;;
11113;SDS011;5610;52.154;9.198;2023-03-01T05:07:57;10.82;;;9.82;;
11113;SDS011;5610;52.154;9.198;2023-03-01T05:10:44;11.55;;;10.48;;
11113;SDS011;5610;52.154;9.198;2023-03-01T05:13:30;9.77;;;8.77;;
11113;SDS011;5610;52.154;9.198;2023-03-01T05:16:17;11.00;;;9.82;;
11113;SDS011;5610;52.154;9.198;2023-03-01T05:19:03;13.05;;;10.70;;
11113;SDS011;5610;52.154;9.198;2023-03-01T05:21:55;12.10;;;10.73;;
11113;SDS011;5610;52.154;9.198;2023-03-01T05:24:47;11.88;;;9.80;;
11113;SDS011;5610;52.154;9.198;2023-03-01T05:27:32;10.43;;;9.43;;
11113;SDS011;5610;52.154;9.198;2023-03-01T05:30:18;11.35;;;10.18;;
11113;SDS011;5610;52.154;9.198;2023-03-01T05:33:05;10.80;;;9.63;;
11113;SDS011;5610;52.154;9.198;2023-03-01T05:35:59;11.60;;;10.43;;
11113;SDS011;5610;52.154;9.198;2023-03-01T05:38:45;11.23;;;9.93;;
11113;SDS011;5610;52.154;9.198;2023-03-01T05:41:30;11.63;;;10.48;;
11113;SDS011;5610;52.154;9.198;2023-03-01T05:44:15;15.23;;;12.70;;
11113;SDS011;5610;52.154;9.198;2023-03-01T05:47:01;13.25;;;11.95;;
11113;SDS011;5610;52.154;9.198;2023-03-01T05:49:47;12.50;;;10.60;;
11113;SDS011;5610;52.154;9.198;2023-03-01T05:52:34;10.95;;;9.85;;
11113;SDS011;5610;52.154;9.198;2023-03-01T05:55:20;12.98;;;11.00;;
11113;SDS011;5610;52.154;9.198;2023-03-01T05:58:06;11.45;;;10.13;;
11113;SDS011;5610;52.154;9.198;2023-03-01T06:00:54;14.35;;;10.90;;
11113;SDS011;5610;52.154;9.198;2023-03-01T06:03:39;13.80;;;11.95;;
11113;SDS011;5610;52.154;9.198;2023-03-01T06:06:26;12.23;;;10.85;;
11113;SDS011;5610;52.154;9.198;2023-03-01T06:09:11;13.43;;;11.80;;
11113;SDS011;5610;52.154;9.198;2023-03-01T06:11:56;13.48;;;12.10;;
11113;SDS011;5610;52.154;9.198;2023-03-01T06:14:42;13.20;;;11.40;;
11113;SDS011;5610;52.154;9.198;2023-03-01T06:17:28;15.52;;;11.90;;
11113;SDS011;5610;52.154;9.198;2023-03-01T06:20:15;14.73;;;12.48;;
11113;SDS011;5610;52.154;9.198;2023-03-01T06:23:03;13.23;;;11.85;;
11113;SDS011;5610;52.154;9.198;2023-03-01T06:25:48;17.65;;;13.13;;
11113;SDS011;5610;52.154;9.198;2023-03-01T06:28:34;16.15;;;13.32;;
11113;SDS011;5610;52.154;9.198;2023-03-01T06:31:20;14.73;;;12.75;;
11113;SDS011;5610;52.154;9.198;2023-03-01T06:34:05;15.02;;;13.43;;
11113;SDS011;5610;52.154;9.198;2023-03-01T06:36:50;16.00;;;12.65;;
11113;SDS011;5610;52.154;9.198;2023-03-01T06:39:37;16.98;;;13.77;;
11113;SDS011;5610;52.154;9.198;2023-03-01T06:42:22;16.20;;;14.50;;
11113;SDS011;5610;52.154;9.198;2023-03-01T06:45:08;17.05;;;14.73;;
11113;SDS011;5610;52.154;9.198;2023-03-01T06:48:01;17.10;;;14.63;;
11113;SDS011;5610;52.154;9.198;2023-03-01T06:50:48;14.85;;;13.35;;
11113;SDS011;5610;52.154;9.198;2023-03-01T06:53:33;15.40;;;12.90;;
11113;SDS011;5610;52.154;9.198;2023-03-01T06:56:20;15.90;;;14.30;;
11113;SDS011;5610;52.154;9.198;2023-03-01T06:59:05;15.13;;;13.45;;
11113;SDS011;5610;52.154;9.198;2023-03-01T07:01:51;15.60;;;13.98;;
11113;SDS011;5610;52.154;9.198;2023-03-01T07:04:36;15.57;;;13.88;;
11113;SDS011;5610;52.154;9.198;2023-03-01T07:07:21;15.90;;;13.70;;
11113;SDS011;5610;52.154;9.198;2023-03-01T07:10:07;14.50;;;13.00;;
11113;SDS011;5610;52.154;9.198;2023-03-01T07:12:56;15.63;;;13.73;;
11113;SDS011;5610;52.154;9.198;2023-03-01T07:15:42;15.95;;;13.23;;
11113;SDS011;5610;52.154;9.198;2023-03-01T07:18:27;15.13;;;12.45;;
11113;SDS011;5610;52.154;9.198;2023-03-01T07:21:13;18.67;;;16.77;;
11113;SDS011;5610;52.154;9.198;2023-03-01T07:24:00;16.52;;;14.88;;
11113;SDS011;5610;52.154;9.198;2023-03-01T07:26:47;14.43;;;12.93;;
11113;SDS011;5610;52.154;9.198;2023-03-01T07:29:34;15.82;;;13.80;;
11113;SDS011;5610;52.154;9.198;2023-03-01T07:32:19;14.98;;;13.10;;
11113;SDS011;5610;52.154;9.198;2023-03-01T07:35:05;14.40;;;12.90;;
11113;SDS011;5610;52.154;9.198;2023-03-01T07:37:51;15.30;;;11.68;;
11113;SDS011;5610;52.154;9.198;2023-03-01T07:40:37;10.60;;;9.55;;
11113;SDS011;5610;52.154;9.198;2023-03-01T07:43:22;11.20;;;10.02;;
11113;SDS011;5610;52.154;9.198;2023-03-01T07:46:09;11.52;;;10.32;;
11113;SDS011;5610;52.154;9.198;2023-03-01T07:48:54;12.55;;;11.25;;
11113;SDS011;5610;52.154;9.198;2023-03-01T07:51:39;12.95;;;11.60;;
11113;SDS011;5610;52.154;9.198;2023-03-01T07:54:25;12.27;;;11.07;;
11113;SDS011;5610;52.154;9.198;2023-03-01T07:57:11;13.52;;;11.65;;
11113;SDS011;5610;52.154;9.198;2023-03-01T07:59:56;12.13;;;10.93;;
11113;SDS011;5610;52.154;9.198;2023-03-01T08:02:43;14.18;;;11.48;;
11113;SDS011;5610;52.154;9.198;2023-03-01T08:05:29;14.57;;;12.77;;
11113;SDS011;5610;52.154;9.198;2023-03-01T08:08:14;12.93;;;11.48;;
11113;SDS011;5610;52.154;9.198;2023-03-01T08:11:00;13.23;;;11.77;;
11113;SDS011;5610;52.154;9.198;2023-03-01T08:13:46;12.65;;;11.35;;
11113;SDS011;5610;52.154;9.198;2023-03-01T08:16:32;14.93;;;12.20;;
11113;SDS011;5610;52.154;9.198;2023-03-01T08:19:20;13.38;;;11.98;;
11113;SDS011;5610;52.154;9.198;2023-03-01T08:22:05;12.70;;;11.35;;
11113;SDS011;5610;52.154;9.198;2023-03-01T08:24:51;13.38;;;11.82;;
11113;SDS011;5610;52.154;9.198;2023-03-01T08:27:36;11.90;;;10.75;;
11113;SDS011;5610;52.154;9.198;2023-03-01T08:30:21;12.50;;;11.20;;
11113;SDS011;5610;52.154;9.198;2023-03-01T08:33:07;12.25;;;11.05;;
11113;SDS011;5610;52.154;9.198;2023-03-01T08:36:01;13.10;;;11.68;;
11113;SDS011;5610;52.154;9.198;2023-03-01T08:38:47;12.35;;;11.05;;
11113;SDS011;5610;52.154;9.198;2023-03-01T08:41:32;15.68;;;11.25;;
11113;SDS011;5610;52.154;9.198;2023-03-01T08:44:18;15.30;;;11.45;;
11113;SDS011;5610;52.154;9.198;2023-03-01T08:47:05;15.68;;;12.25;;
11113;SDS011;5610;52.154;9.198;2023-03-01T08:49:50;14.25;;;11.52;;
11113;SDS011;5610;52.154;9.198;2023-03-01T08:52:37;13.13;;;11.73;;
11113;SDS011;5610;52.154;9.198;2023-03-01T08:55:22;12.85;;;11.43;;
11113;SDS011;5610;52.154;9.198;2023-03-01T08:58:08;12.20;;;10.88;;
11113;SDS011;5610;52.154;9.198;2023-03-01T09:00:53;12.13;;;10.90;;
11113;SDS011;5610;52.154;9.198;2023-03-01T09:03:40;11.63;;;10.48;;
11113;SDS011;5610;52.154;9.198;2023-03-01T09:06:26;11.10;;;10.00;;
11113;SDS011;5610;52.154;9.198;2023-03-01T09:09:14;13.18;;;10.30;;
11113;SDS011;5610;52.154;9.198;2023-03-01T09:12:01;11.00;;;9.90;;
11113;SDS011;5610;52.154;9.198;2023-03-01T09:14:46;11.73;;;10.52;;
11113;SDS011;5610;52.154;9.198;2023-03-01T09:17:31;13.82;;;12.20;;
11113;SDS011;5610;52.154;9.198;2023-03-01T09:20:17;11.45;;;10.23;;
11113;SDS011;5610;52.154;9.198;2023-03-01T09:23:02;12.35;;;9.40;;
11113;SDS011;5610;52.154;9.198;2023-03-01T09:25:49;11.25;;;9.63;;
11113;SDS011;5610;52.154;9.198;2023-03-01T09:28:34;12.30;;;10.52;;
11113;SDS011;5610;52.154;9.198;2023-03-01T09:31:20;11.90;;;10.43;;
11113;SDS011;5610;52.154;9.198;2023-03-01T09:34:08;10.93;;;9.87;;
11113;SDS011;5610;52.154;9.198;2023-03-01T09:36:53;13.02;;;10.00;;
11113;SDS011;5610;52.154;9.198;2023-03-01T09:39:39;10.60;;;9.50;;
11113;SDS011;5610;52.154;9.198;2023-03-01T09:42:25;11.87;;;10.70;;
11113;SDS011;5610;52.154;9.198;2023-03-01T09:45:16;11.00;;;9.90;;
11113;SDS011;5610;52.154;9.198;2023-03-01T09:48:09;15.33;;;9.43;;
11113;SDS011;5610;52.154;9.198;2023-03-01T09:51:01;11.97;;;9.13;;
11113;SDS011;5610;52.154;9.198;2023-03-01T09:53:53;11.83;;;9.70;;
11113;SDS011;5610;52.154;9.198;2023-03-01T09:56:41;11.43;;;9.70;;
11113;SDS011;5610;52.154;9.198;2023-03-01T09:59:36;10.07;;;8.97;;
11113;SDS011;5610;52.154;9.198;2023-03-01T10:02:38;12.90;;;9.10;;
11113;SDS011;5610;52.154;9.198;2023-03-01T10:05:30;10.83;;;9.03;;
11113;SDS011;5610;52.154;9.198;2023-03-01T10:08:31;11.07;;;8.90;;
11113;SDS011;5610;52.154;9.198;2023-03-01T10:11:23;10.40;;;8.83;;
11113;SDS011;5610;52.154;9.198;2023-03-01T10:14:13;8.90;;;7.77;;
11113;SDS011;5610;52.154;9.198;2023-03-01T10:17:12;10.63;;;8.00;;
11113;SDS011;5610;52.154;9.198;2023-03-01T10:20:11;8.80;;;7.90;;
11113;SDS011;5610;52.154;9.198;2023-03-01T10:23:01;8.80;;;7.90;;
11113;SDS011;5610;52.154;9.198;2023-03-01T10:25:56;9.77;;;8.33;;
11113;SDS011;5610;52.154;9.198;2023-03-01T10:28:56;12.93;;;8.57;;
11113;SDS011;5610;52.154;9.198;2023-03-01T10:31:47;8.80;;;7.90;;
11113;SDS011;5610;52.154;9.198;2023-03-01T10:34:36;9.90;;;8.20;;
11113;SDS011;5610;52.154;9.198;2023-03-01T10:37:21;8.10;;;7.40;;
11113;SDS011;5610;52.154;9.198;2023-03-01T10:40:09;8.90;;;8.07;;
11113;SDS011;5610;52.154;9.198;2023-03-01T10:42:57;9.53;;;8.63;;
11113;SDS011;5610;52.154;9.198;2023-03-01T10:45:43;8.20;;;7.27;;
11113;SDS011;5610;52.154;9.198;2023-03-01T10:48:28;7.13;;;6.33;;
11113;SDS011;5610;52.154;9.198;2023-03-01T10:51:17;6.73;;;6.10;;
11113;SDS011;5610;52.154;9.198;2023-03-01T10:54:04;7.13;;;6.53;;
11113;SDS011;5610;52.154;9.198;2023-03-01T10:56:51;6.13;;;5.63;;
11113;SDS011;5610;52.154;9.198;2023-03-01T10:59:39;6.57;;;5.97;;
11113;SDS011;5610;52.154;9.198;2023-03-01T11:02:25;6.43;;;5.93;;
11113;SDS011;5610;52.154;9.198;2023-03-01T11:05:16;6.93;;;6.30;;
11113;SDS011;5610;52.154;9.198;2023-03-01T11:08:05;6.13;;;5.60;;
11113;SDS011;5610;52.154;9.198;2023-03-01T11:10:50;6.73;;;5.60;;
11113;SDS011;5610;52.154;9.198;2023-03-01T11:13:36;6.87;;;6.17;;
11113;SDS011;5610;52.154;9.198;2023-03-01T11:16:24;6.00;;;5.40;;
11113;SDS011;5610;52.154;9.198;2023-03-01T11:19:16;5.80;;;5.37;;
11113;SDS011;5610;52.154;9.198;2023-03-01T11:22:03;6.60;;;6.00;;
11113;SDS011;5610;52.154;9.198;2023-03-01T11:24:58;6.83;;;6.23;;
11113;SDS011;5610;52.154;9.198;2023-03-01T11:27:44;6.60;;;6.00;;
11113;SDS011;5610;52.154;9.198;2023-03-01T11:30:32;6.20;;;5.67;;
11113;SDS011;5610;52.154;9.198;2023-03-01T11:33:24;6.33;;;5.80;;
11113;SDS011;5610;52.154;9.198;2023-03-01T11:36:22;6.80;;;5.97;;
11113;SDS011;5610;52.154;9.198;2023-03-01T11:39:17;8.27;;;6.50;;
11113;SDS011;5610;52.154;9.198;2023-03-01T11:42:13;7.07;;;6.47;;
11113;SDS011;5610;52.154;9.198;2023-03-01T11:45:05;6.33;;;5.70;;
11113;SDS011;5610;52.154;9.198;2023-03-01T11:48:00;5.80;;;5.30;;
11113;SDS011;5610;52.154;9.198;2023-03-01T11:50:56;5.77;;;5.27;;
11113;SDS011;5610;52.154;9.198;2023-03-01T11:53:50;6.60;;;6.00;;
11113;SDS011;5610;52.154;9.198;2023-03-01T11:56:46;6.10;;;5.60;;
11113;SDS011;5610;52.154;9.198;2023-03-01T11:59:50;6.63;;;5.90;;
11113;SDS011;5610;52.154;9.198;2023-03-01T12:06:32;5.60;;;5.13;;
11113;SDS011;5610;52.154;9.198;2023-03-01T12:09:37;8.67;;;4.90;;
11113;SDS011;5610;52.154;9.198;2023-03-01T12:12:33;5.80;;;5.30;;
11113;SDS011;5610;52.154;9.198;2023-03-01T12:19:08;6.10;;;5.20;;
11113;SDS011;5610;52.154;9.198;2023-03-01T12:22:06;5.70;;;5.23;;
11113;SDS011;5610;52.154;9.198;2023-03-01T12:25:10;5.70;;;5.30;;
11113;SDS011;5610;52.154;9.198;2023-03-01T12:28:18;5.33;;;4.87;;
11113;SDS011;5610;52.154;9.198;2023-03-01T12:31:35;5.10;;;4.70;;
11113;SDS011;5610;52.154;9.198;2023-03-01T12:34:37;5.50;;;4.97;;
11113;SDS011;5610;52.154;9.198;2023-03-01T12:37:40;5.50;;;5.10;;
11113;SDS011;5610;52.154;9.198;2023-03-01T12:44:06;4.80;;;4.40;;
11113;SDS011;5610;52.154;9.198;2023-03-01T12:47:05;5.20;;;4.80;;
11113;SDS011;5610;52.154;9.198;2023-03-01T12:50:00;5.13;;;4.73;;
11113;SDS011;5610;52.154;9.198;2023-03-01T12:52:48;5.80;;;5.30;;
11113;SDS011;5610;52.154;9.198;2023-03-01T12:55:36;5.70;;;5.30;;
11113;SDS011;5610;52.154;9.198;2023-03-01T12:58:26;5.23;;;4.73;;
11113;SDS011;5610;52.154;9.198;2023-03-01T13:01:16;4.63;;;4.23;;
11113;SDS011;5610;52.154;9.198;2023-03-01T13:04:12;4.73;;;4.43;;
11113;SDS011;5610;52.154;9.198;2023-03-01T13:07:07;5.00;;;4.50;;
11113;SDS011;5610;52.154;9.198;2023-03-01T13:10:04;4.93;;;4.53;;
11113;SDS011;5610;52.154;9.198;2023-03-01T13:13:01;4.97;;;4.57;;
11113;SDS011;5610;52.154;9.198;2023-03-01T13:15:56;4.70;;;4.30;;
11113;SDS011;5610;52.154;9.198;2023-03-01T13:19:10;4.60;;;4.20;;
11113;SDS011;5610;52.154;9.198;2023-03-01T13:22:01;6.20;;;5.70;;
11113;SDS011;5610;52.154;9.198;2023-03-01T13:25:13;7.30;;;6.60;;
11113;SDS011;5610;52.154;9.198;2023-03-01T13:34:46;4.50;;;4.10;;
11113;SDS011;5610;52.154;9.198;2023-03-01T13:37:36;4.80;;;4.40;;
11113;SDS011;5610;52.154;9.198;2023-03-01T13:43:44;4.50;;;4.10;;
11113;SDS011;5610;52.154;9.198;2023-03-01T13:46:32;5.23;;;4.73;;
11113;SDS011;5610;52.154;9.198;2023-03-01T13:49:18;5.00;;;4.50;;
11113;SDS011;5610;52.154;9.198;2023-03-01T13:52:27;4.87;;;4.37;;
11113;SDS011;5610;52.154;9.198;2023-03-01T13:55:20;4.47;;;4.07;;
11113;SDS011;5610;52.154;9.198;2023-03-01T13:58:15;4.20;;;3.77;;
11113;SDS011;5610;52.154;9.198;2023-03-01T14:01:04;4.63;;;4.23;;
11113;SDS011;5610;52.154;9.198;2023-03-01T14:03:50;4.67;;;4.27;;
11113;SDS011;5610;52.154;9.198;2023-03-01T14:06:36;4.37;;;3.97;;
11113;SDS011;5610;52.154;9.198;2023-03-01T14:09:23;3.93;;;3.60;;
11113;SDS011;5610;52.154;9.198;2023-03-01T14:12:16;4.13;;;3.73;;
11113;SDS011;5610;52.154;9.198;2023-03-01T14:15:14;5.00;;;4.50;;
11113;SDS011;5610;52.154;9.198;2023-03-01T14:18:03;5.43;;;4.73;;
11113;SDS011;5610;52.154;9.198;2023-03-01T14:20:55;11.10;;;10.10;;
11113;SDS011;5610;52.154;9.198;2023-03-01T14:23:40;5.30;;;4.90;;
11113;SDS011;5610;52.154;9.198;2023-03-01T14:26:28;6.80;;;4.57;;
11113;SDS011;5610;52.154;9.198;2023-03-01T14:29:26;5.17;;;4.77;;
11113;SDS011;5610;52.154;9.198;2023-03-01T14:32:15;7.57;;;6.97;;
11113;SDS011;5610;52.154;9.198;2023-03-01T14:35:18;5.90;;;5.37;;
11113;SDS011;5610;52.154;9.198;2023-03-01T14:38:05;5.70;;;5.20;;
11113;SDS011;5610;52.154;9.198;2023-03-01T14:40:51;5.73;;;5.00;;
11113;SDS011;5610;52.154;9.198;2023-03-01T14:43:43;5.50;;;5.00;;
11113;SDS011;5610;52.154;9.198;2023-03-01T14:46:31;5.77;;;4.83;;
11113;SDS011;5610;52.154;9.198;2023-03-01T14:49:19;4.50;;;4.20;;
11113;SDS011;5610;52.154;9.198;2023-03-01T14:52:07;5.40;;;4.90;;
11113;SDS011;5610;52.154;9.198;2023-03-01T14:55:04;5.33;;;4.87;;
11113;SDS011;5610;52.154;9.198;2023-03-01T14:57:52;4.83;;;4.43;;
11113;SDS011;5610;52.154;9.198;2023-03-01T15:00:39;4.53;;;3.77;;
11113;SDS011;5610;52.154;9.198;2023-03-01T15:03:31;5.20;;;4.27;;
11113;SDS011;5610;52.154;9.198;2023-03-01T15:06:21;4.27;;;3.97;;
11113;SDS011;5610;52.154;9.198;2023-03-01T15:09:11;6.30;;;4.07;;
11113;SDS011;5610;52.154;9.198;2023-03-01T15:11:59;5.40;;;4.37;;
11113;SDS011;5610;52.154;9.198;2023-03-01T15:14:45;5.10;;;4.60;;
11113;SDS011;5610;52.154;9.198;2023-03-01T15:17:34;4.53;;;4.13;;
11113;SDS011;5610;52.154;9.198;2023-03-01T15:20:22;4.77;;;4.37;;
11113;SDS011;5610;52.154;9.198;2023-03-01T15:23:16;5.57;;;5.10;;
11113;SDS011;5610;52.154;9.198;2023-03-01T15:26:05;5.30;;;4.80;;
11113;SDS011;5610;52.154;9.198;2023-03-01T15:28:52;4.87;;;4.37;;
11113;SDS011;5610;52.154;9.198;2023-03-01T15:31:41;6.47;;;5.33;;
11113;SDS011;5610;52.154;9.198;2023-03-01T15:34:28;4.97;;;4.10;;
11113;SDS011;5610;52.154;9.198;2023-03-01T15:40:23;5.00;;;4.60;;
11113;SDS011;5610;52.154;9.198;2023-03-01T15:46:22;5.20;;;4.80;;
11113;SDS011;5610;52.154;9.198;2023-03-01T15:49:19;6.03;;;5.43;;
11113;SDS011;5610;52.154;9.198;2023-03-01T15:52:15;7.03;;;5.50;;
11113;SDS011;5610;52.154;9.198;2023-03-01T15:55:16;6.80;;;5.07;;
11113;SDS011;5610;52.154;9.198;2023-03-01T15:58:04;6.23;;;5.67;;
11113;SDS011;5610;52.154;9.198;2023-03-01T16:00:54;6.20;;;5.60;;
11113;SDS011;5610;52.154;9.198;2023-03-01T16:03:40;7.10;;;5.67;;
11113;SDS011;5610;52.154;9.198;2023-03-01T16:06:25;7.13;;;5.93;;
11113;SDS011;5610;52.154;9.198;2023-03-01T16:09:12;7.37;;;5.30;;
11113;SDS011;5610;52.154;9.198;2023-03-01T16:11:58;5.30;;;4.80;;
11113;SDS011;5610;52.154;9.198;2023-03-01T16:14:43;6.73;;;5.93;;
11113;SDS011;5610;52.154;9.198;2023-03-01T16:17:29;7.53;;;6.73;;
11113;SDS011;5610;52.154;9.198;2023-03-01T16:20:14;8.80;;;7.90;;
11113;SDS011;5610;52.154;9.198;2023-03-01T16:23:00;9.83;;;8.93;;
11113;SDS011;5610;52.154;9.198;2023-03-01T16:25:48;7.03;;;5.47;;
11113;SDS011;5610;52.154;9.198;2023-03-01T16:28:33;7.47;;;6.30;;
11113;SDS011;5610;52.154;9.198;2023-03-01T16:31:19;10.57;;;5.93;;
11113;SDS011;5610;52.154;9.198;2023-03-01T16:34:04;7.60;;;5.43;;
11113;SDS011;5610;52.154;9.198;2023-03-01T16:36:50;7.50;;;4.83;;
11113;SDS011;5610;52.154;9.198;2023-03-01T16:39:37;6.87;;;5.40;;
11113;SDS011;5610;52.154;9.198;2023-03-01T16:42:24;8.97;;;5.90;;
11113;SDS011;5610;52.154;9.198;2023-03-01T16:45:11;6.10;;;5.50;;
11113;SDS011;5610;52.154;9.198;2023-03-01T16:47:56;6.80;;;5.57;;
11113;SDS011;5610;52.154;9.198;2023-03-01T16:50:42;6.47;;;4.93;;
11113;SDS011;5610;52.154;9.198;2023-03-01T16:53:28;5.97;;;4.80;;
11113;SDS011;5610;52.154;9.198;2023-03-01T16:56:13;13.00;;;5.20;;
11113;SDS011;5610;52.154;9.198;2023-03-01T16:59:01;6.67;;;5.50;;
11113;SDS011;5610;52.154;9.198;2023-03-01T17:01:46;11.83;;;5.50;;
11113;SDS011;5610;52.154;9.198;2023-03-01T17:04:32;5.97;;;5.10;;
11113;SDS011;5610;52.154;9.198;2023-03-01T17:07:17;5.93;;;4.77;;
11113;SDS011;5610;52.154;9.198;2023-03-01T17:10:03;6.50;;;4.30;;
11113;SDS011;5610;52.154;9.198;2023-03-01T17:12:51;4.90;;;4.20;;
11113;SDS011;5610;52.154;9.198;2023-03-01T17:15:39;4.90;;;4.40;;
11113;SDS011;5610;52.154;9.198;2023-03-01T17:18:25;5.57;;;4.10;;
11113;SDS011;5610;52.154;9.198;2023-03-01T17:21:11;5.53;;;4.80;;
11113;SDS011;5610;52.154;9.198;2023-03-01T17:23:56;6.00;;;4.50;;
11113;SDS011;5610;52.154;9.198;2023-03-01T17:26:42;5.13;;;4.63;;
11113;SDS011;5610;52.154;9.198;2023-03-01T17:29:27;5.27;;;4.37;;